sensor_id;sensor_type;location;lat;lon;timestamp;temperature;humidity
62904;DHT22;49000;50.698;13.322;2023-04-24T00:01:39;10.50;99.90
62904;DHT22;49000;50.698;13.322;2023-04-24T00:04:06;10.50;99.90
62904;DHT22;49000;50.698;13.322;2023-04-24T00:06:32;10.50;99.90
62904;DHT22;49000;50.698;13.322;2023-04-24T00:09:03;10.50;99.90
62904;DHT22;49000;50.698;13.322;2023-04-24T00:11:29;10.50;99.90
62904;DHT22;49000;50.698;13.322;2023-04-24T00:13:54;10.40;99.90
62904;DHT22;49000;50.698;13.322;2023-04-24T00:16:20;10.40;99.90
62904;DHT22;49000;50.698;13.322;2023-04-24T00:18:45;10.40;99.90
62904;DHT22;49000;50.698;13.322;2023-04-24T00:21:13;10.40;99.90
62904;DHT22;49000;50.698;13.322;2023-04-24T00:23:38;10.30;99.90
62904;DHT22;49000;50.698;13.322;2023-04-24T00:26:05;10.30;99.90
62904;DHT22;49000;50.698;13.322;2023-04-24T00:28:30;10.30;99.90
62904;DHT22;49000;50.698;13.322;2023-04-24T00:30:56;10.30;99.90
62904;DHT22;49000;50.698;13.322;2023-04-24T00:33:21;10.30;99.90
62904;DHT22;49000;50.698;13.322;2023-04-24T00:35:47;10.30;99.90
62904;DHT22;49000;50.698;13.322;2023-04-24T00:38:12;10.30;99.90
62904;DHT22;49000;50.698;13.322;2023-04-24T00:40:38;10.30;99.90
62904;DHT22;49000;50.698;13.322;2023-04-24T00:43:03;10.20;99.90
62904;DHT22;49000;50.698;13.322;2023-04-24T00:45:29;10.20;99.90
62904;DHT22;49000;50.698;13.322;2023-04-24T00:47:56;10.30;99.90
62904;DHT22;49000;50.698;13.322;2023-04-24T00:50:23;10.30;99.90
62904;DHT22;49000;50.698;13.322;2023-04-24T00:52:49;10.30;99.90
62904;DHT22;49000;50.698;13.322;2023-04-24T00:55:16;10.30;99.90
62904;DHT22;49000;50.698;13.322;2023-04-24T00:57:41;10.30;99.90
62904;DHT22;49000;50.698;13.322;2023-04-24T01:00:07;10.30;99.90
62904;DHT22;49000;50.698;13.322;2023-04-24T01:02:36;10.40;99.90
62904;DHT22;49000;50.698;13.322;2023-04-24T01:05:06;10.40;99.90
62904;DHT22;49000;50.698;13.322;2023-04-24T01:07:32;10.40;99.90
62904;DHT22;49000;50.698;13.322;2023-04-24T01:09:58;10.40;99.90
62904;DHT22;49000;50.698;13.322;2023-04-24T01:12:23;10.40;99.90
62904;DHT22;49000;50.698;13.322;2023-04-24T01:14:49;10.40;99.90
62904;DHT22;49000;50.698;13.322;2023-04-24T01:17:15;10.40;99.90
62904;DHT22;49000;50.698;13.322;2023-04-24T01:19:40;10.40;99.90
62904;DHT22;49000;50.698;13.322;2023-04-24T01:22:15;10.40;99.90
62904;DHT22;49000;50.698;13.322;2023-04-24T01:24:42;10.40;99.90
62904;DHT22;49000;50.698;13.322;2023-04-24T01:27:09;10.30;99.90
62904;DHT22;49000;50.698;13.322;2023-04-24T01:29:35;10.30;99.90
62904;DHT22;49000;50.698;13.322;2023-04-24T01:32:00;10.30;99.90
62904;DHT22;49000;50.698;13.322;2023-04-24T01:34:26;10.30;99.90
62904;DHT22;49000;50.698;13.322;2023-04-24T01:36:52;10.20;99.90
62904;DHT22;49000;50.698;13.322;2023-04-24T01:39:17;10.20;99.90
62904;DHT22;49000;50.698;13.322;2023-04-24T01:41:43;10.20;99.90
62904;DHT22;49000;50.698;13.322;2023-04-24T01:44:09;10.20;99.90
62904;DHT22;49000;50.698;13.322;2023-04-24T01:46:35;10.20;99.90
62904;DHT22;49000;50.698;13.322;2023-04-24T01:49:01;10.10;99.90
62904;DHT22;49000;50.698;13.322;2023-04-24T01:51:27;10.20;99.90
62904;DHT22;49000;50.698;13.322;2023-04-24T01:53:52;10.10;99.90
62904;DHT22;49000;50.698;13.322;2023-04-24T01:56:21;10.10;99.90
62904;DHT22;49000;50.698;13.322;2023-04-24T01:58:47;10.10;99.90
62904;DHT22;49000;50.698;13.322;2023-04-24T02:01:19;10.10;99.90
62904;DHT22;49000;50.698;13.322;2023-04-24T02:03:45;10.10;99.90
62904;DHT22;49000;50.698;13.322;2023-04-24T02:06:11;10.10;99.90
62904;DHT22;49000;50.698;13.322;2023-04-24T02:08:36;10.10;99.90
62904;DHT22;49000;50.698;13.322;2023-04-24T02:11:02;10.10;99.90
62904;DHT22;49000;50.698;13.322;2023-04-24T02:13:28;10.10;99.90
62904;DHT22;49000;50.698;13.322;2023-04-24T02:15:53;10.10;99.90
62904;DHT22;49000;50.698;13.322;2023-04-24T02:18:19;10.10;99.90
62904;DHT22;49000;50.698;13.322;2023-04-24T02:20:45;10.10;99.90
62904;DHT22;49000;50.698;13.322;2023-04-24T02:23:10;10.10;99.90
62904;DHT22;49000;50.698;13.322;2023-04-24T02:25:36;10.10;99.90
62904;DHT22;49000;50.698;13.322;2023-04-24T02:28:01;10.10;99.90
62904;DHT22;49000;50.698;13.322;2023-04-24T02:30:28;10.10;99.90
62904;DHT22;49000;50.698;13.322;2023-04-24T02:32:53;10.10;99.90
62904;DHT22;49000;50.698;13.322;2023-04-24T02:35:19;10.10;99.90
62904;DHT22;49000;50.698;13.322;2023-04-24T02:37:44;10.20;99.90
62904;DHT22;49000;50.698;13.322;2023-04-24T02:40:10;10.10;99.90
62904;DHT22;49000;50.698;13.322;2023-04-24T02:42:35;10.10;99.90
62904;DHT22;49000;50.698;13.322;2023-04-24T02:45:01;10.20;99.90
62904;DHT22;49000;50.698;13.322;2023-04-24T02:47:26;10.10;99.90
62904;DHT22;49000;50.698;13.322;2023-04-24T02:49:52;10.10;99.90
62904;DHT22;49000;50.698;13.322;2023-04-24T02:52:17;10.20;99.90
62904;DHT22;49000;50.698;13.322;2023-04-24T02:54:43;10.20;99.90
62904;DHT22;49000;50.698;13.322;2023-04-24T02:57:08;10.20;99.90
62904;DHT22;49000;50.698;13.322;2023-04-24T02:59:34;10.20;99.90
62904;DHT22;49000;50.698;13.322;2023-04-24T03:01:59;10.10;99.90
62904;DHT22;49000;50.698;13.322;2023-04-24T03:04:25;10.10;99.90
62904;DHT22;49000;50.698;13.322;2023-04-24T03:06:52;10.10;99.90
62904;DHT22;49000;50.698;13.322;2023-04-24T03:09:20;10.10;99.90
62904;DHT22;49000;50.698;13.322;2023-04-24T03:11:46;10.10;99.90
62904;DHT22;49000;50.698;13.322;2023-04-24T03:14:11;10.10;99.90
62904;DHT22;49000;50.698;13.322;2023-04-24T03:16:37;10.10;99.90
62904;DHT22;49000;50.698;13.322;2023-04-24T03:19:02;10.10;99.90
62904;DHT22;49000;50.698;13.322;2023-04-24T03:21:28;10.00;99.90
62904;DHT22;49000;50.698;13.322;2023-04-24T03:23:53;10.10;99.90
62904;DHT22;49000;50.698;13.322;2023-04-24T03:26:19;10.00;99.90
62904;DHT22;49000;50.698;13.322;2023-04-24T03:28:44;10.00;99.90
62904;DHT22;49000;50.698;13.322;2023-04-24T03:31:10;10.00;99.90
62904;DHT22;49000;50.698;13.322;2023-04-24T03:33:35;9.90;99.90
62904;DHT22;49000;50.698;13.322;2023-04-24T03:36:01;9.90;99.90
62904;DHT22;49000;50.698;13.322;2023-04-24T03:38:27;9.80;99.90
62904;DHT22;49000;50.698;13.322;2023-04-24T03:40:52;9.80;99.90
62904;DHT22;49000;50.698;13.322;2023-04-24T03:43:18;9.80;99.90
62904;DHT22;49000;50.698;13.322;2023-04-24T03:45:43;9.80;99.90
62904;DHT22;49000;50.698;13.322;2023-04-24T03:48:09;9.80;99.90
62904;DHT22;49000;50.698;13.322;2023-04-24T03:50:34;9.70;99.90
62904;DHT22;49000;50.698;13.322;2023-04-24T03:52:59;9.70;99.90
62904;DHT22;49000;50.698;13.322;2023-04-24T03:55:25;9.70;99.90
62904;DHT22;49000;50.698;13.322;2023-04-24T03:57:51;9.60;99.90
62904;DHT22;49000;50.698;13.322;2023-04-24T04:00:16;9.60;99.90
62904;DHT22;49000;50.698;13.322;2023-04-24T04:02:42;9.60;99.90
62904;DHT22;49000;50.698;13.322;2023-04-24T04:05:07;9.60;99.90
62904;DHT22;49000;50.698;13.322;2023-04-24T04:07:33;9.60;99.90
62904;DHT22;49000;50.698;13.322;2023-04-24T04:09:59;9.60;99.90
62904;DHT22;49000;50.698;13.322;2023-04-24T04:12:24;9.70;99.90
62904;DHT22;49000;50.698;13.322;2023-04-24T04:14:50;9.70;99.90
62904;DHT22;49000;50.698;13.322;2023-04-24T04:17:15;9.60;99.90
62904;DHT22;49000;50.698;13.322;2023-04-24T04:19:41;9.70;99.90
62904;DHT22;49000;50.698;13.322;2023-04-24T04:22:07;9.70;99.90
62904;DHT22;49000;50.698;13.322;2023-04-24T04:24:33;9.60;99.90
62904;DHT22;49000;50.698;13.322;2023-04-24T04:27:03;9.70;99.90
62904;DHT22;49000;50.698;13.322;2023-04-24T04:29:30;9.70;99.90
62904;DHT22;49000;50.698;13.322;2023-04-24T04:31:57;9.70;99.90
62904;DHT22;49000;50.698;13.322;2023-04-24T04:34:22;9.70;99.90
62904;DHT22;49000;50.698;13.322;2023-04-24T04:36:48;9.70;99.90
62904;DHT22;49000;50.698;13.322;2023-04-24T04:39:14;9.70;99.90
62904;DHT22;49000;50.698;13.322;2023-04-24T04:41:43;9.80;99.90
62904;DHT22;49000;50.698;13.322;2023-04-24T04:44:09;9.80;99.90
62904;DHT22;49000;50.698;13.322;2023-04-24T04:46:35;9.80;99.90
62904;DHT22;49000;50.698;13.322;2023-04-24T04:49:02;9.80;99.90
62904;DHT22;49000;50.698;13.322;2023-04-24T04:51:28;9.80;99.90
62904;DHT22;49000;50.698;13.322;2023-04-24T04:53:54;9.90;99.90
62904;DHT22;49000;50.698;13.322;2023-04-24T04:56:19;9.90;99.90
62904;DHT22;49000;50.698;13.322;2023-04-24T04:58:45;9.90;99.90
62904;DHT22;49000;50.698;13.322;2023-04-24T05:01:10;9.80;99.90
62904;DHT22;49000;50.698;13.322;2023-04-24T05:03:36;9.80;99.90
62904;DHT22;49000;50.698;13.322;2023-04-24T05:06:02;9.90;99.90
62904;DHT22;49000;50.698;13.322;2023-04-24T05:08:27;9.90;99.90
62904;DHT22;49000;50.698;13.322;2023-04-24T05:10:53;10.00;99.90
62904;DHT22;49000;50.698;13.322;2023-04-24T05:13:19;10.00;99.90
62904;DHT22;49000;50.698;13.322;2023-04-24T05:15:45;10.00;99.90
62904;DHT22;49000;50.698;13.322;2023-04-24T05:18:11;10.00;99.90
62904;DHT22;49000;50.698;13.322;2023-04-24T05:20:36;10.00;99.90
62904;DHT22;49000;50.698;13.322;2023-04-24T05:23:02;10.10;99.90
62904;DHT22;49000;50.698;13.322;2023-04-24T05:25:27;10.10;99.90
62904;DHT22;49000;50.698;13.322;2023-04-24T05:27:53;10.10;99.90
62904;DHT22;49000;50.698;13.322;2023-04-24T05:30:21;10.00;99.90
62904;DHT22;49000;50.698;13.322;2023-04-24T05:32:46;10.10;99.90
62904;DHT22;49000;50.698;13.322;2023-04-24T05:35:12;10.10;99.90
62904;DHT22;49000;50.698;13.322;2023-04-24T05:37:37;10.10;99.90
62904;DHT22;49000;50.698;13.322;2023-04-24T05:40:03;10.20;99.90
62904;DHT22;49000;50.698;13.322;2023-04-24T05:42:31;10.20;99.90
62904;DHT22;49000;50.698;13.322;2023-04-24T05:44:56;10.20;99.90
62904;DHT22;49000;50.698;13.322;2023-04-24T05:47:22;10.30;99.90
62904;DHT22;49000;50.698;13.322;2023-04-24T05:49:47;10.40;99.90
62904;DHT22;49000;50.698;13.322;2023-04-24T05:52:13;10.50;99.90
62904;DHT22;49000;50.698;13.322;2023-04-24T05:54:38;10.60;99.90
62904;DHT22;49000;50.698;13.322;2023-04-24T05:57:04;10.70;99.90
62904;DHT22;49000;50.698;13.322;2023-04-24T05:59:33;10.90;99.90
62904;DHT22;49000;50.698;13.322;2023-04-24T06:01:59;10.90;99.90
62904;DHT22;49000;50.698;13.322;2023-04-24T06:04:24;11.00;99.90
62904;DHT22;49000;50.698;13.322;2023-04-24T06:06:50;11.20;99.90
62904;DHT22;49000;50.698;13.322;2023-04-24T06:09:21;11.30;99.90
62904;DHT22;49000;50.698;13.322;2023-04-24T06:11:47;11.40;99.90
62904;DHT22;49000;50.698;13.322;2023-04-24T06:14:12;11.40;99.90
62904;DHT22;49000;50.698;13.322;2023-04-24T06:16:38;11.50;99.90
62904;DHT22;49000;50.698;13.322;2023-04-24T06:19:04;11.50;99.90
62904;DHT22;49000;50.698;13.322;2023-04-24T06:21:29;11.60;99.90
62904;DHT22;49000;50.698;13.322;2023-04-24T06:23:55;11.70;99.90
62904;DHT22;49000;50.698;13.322;2023-04-24T06:26:21;11.80;99.90
62904;DHT22;49000;50.698;13.322;2023-04-24T06:28:47;11.90;99.90
62904;DHT22;49000;50.698;13.322;2023-04-24T06:31:12;11.90;99.90
62904;DHT22;49000;50.698;13.322;2023-04-24T06:33:38;11.90;99.90
62904;DHT22;49000;50.698;13.322;2023-04-24T06:36:04;12.00;99.90
62904;DHT22;49000;50.698;13.322;2023-04-24T06:38:29;12.10;99.90
62904;DHT22;49000;50.698;13.322;2023-04-24T06:40:55;12.00;99.90
62904;DHT22;49000;50.698;13.322;2023-04-24T06:43:20;11.90;99.90
62904;DHT22;49000;50.698;13.322;2023-04-24T06:45:46;12.00;99.90
62904;DHT22;49000;50.698;13.322;2023-04-24T06:48:12;12.10;99.90
62904;DHT22;49000;50.698;13.322;2023-04-24T06:50:37;12.20;99.90
62904;DHT22;49000;50.698;13.322;2023-04-24T06:53:03;12.30;96.90
62904;DHT22;49000;50.698;13.322;2023-04-24T06:55:28;12.40;94.10
62904;DHT22;49000;50.698;13.322;2023-04-24T06:57:54;12.40;95.30
62904;DHT22;49000;50.698;13.322;2023-04-24T07:00:20;12.60;93.30
62904;DHT22;49000;50.698;13.322;2023-04-24T07:02:46;12.60;74.90
62904;DHT22;49000;50.698;13.322;2023-04-24T07:05:11;12.50;81.10
62904;DHT22;49000;50.698;13.322;2023-04-24T07:07:38;12.50;77.40
62904;DHT22;49000;50.698;13.322;2023-04-24T07:10:05;12.60;82.60
62904;DHT22;49000;50.698;13.322;2023-04-24T07:12:31;12.80;74.10
62904;DHT22;49000;50.698;13.322;2023-04-24T07:14:57;12.90;76.00
62904;DHT22;49000;50.698;13.322;2023-04-24T07:17:23;13.00;76.80
62904;DHT22;49000;50.698;13.322;2023-04-24T07:19:48;12.80;64.60
62904;DHT22;49000;50.698;13.322;2023-04-24T07:22:14;12.70;61.30
62904;DHT22;49000;50.698;13.322;2023-04-24T07:24:43;12.60;62.50
62904;DHT22;49000;50.698;13.322;2023-04-24T07:27:08;12.60;63.20
62904;DHT22;49000;50.698;13.322;2023-04-24T07:29:34;12.60;65.90
62904;DHT22;49000;50.698;13.322;2023-04-24T07:32:00;12.50;70.30
62904;DHT22;49000;50.698;13.322;2023-04-24T07:34:26;12.40;69.80
62904;DHT22;49000;50.698;13.322;2023-04-24T07:36:51;12.50;65.70
62904;DHT22;49000;50.698;13.322;2023-04-24T07:39:17;12.40;60.90
62904;DHT22;49000;50.698;13.322;2023-04-24T07:41:43;12.50;64.60
62904;DHT22;49000;50.698;13.322;2023-04-24T07:44:08;12.60;64.20
62904;DHT22;49000;50.698;13.322;2023-04-24T07:46:34;12.60;60.40
62904;DHT22;49000;50.698;13.322;2023-04-24T07:48:59;12.50;57.70
62904;DHT22;49000;50.698;13.322;2023-04-24T07:51:26;12.40;57.00
62904;DHT22;49000;50.698;13.322;2023-04-24T07:53:56;12.40;61.80
62904;DHT22;49000;50.698;13.322;2023-04-24T07:56:21;12.30;60.30
62904;DHT22;49000;50.698;13.322;2023-04-24T07:58:47;12.30;66.70
62904;DHT22;49000;50.698;13.322;2023-04-24T08:01:12;12.10;56.70
62904;DHT22;49000;50.698;13.322;2023-04-24T08:03:38;12.00;61.90
62904;DHT22;49000;50.698;13.322;2023-04-24T08:06:03;11.90;65.20
62904;DHT22;49000;50.698;13.322;2023-04-24T08:08:29;11.90;67.40
62904;DHT22;49000;50.698;13.322;2023-04-24T08:10:55;11.90;67.50
62904;DHT22;49000;50.698;13.322;2023-04-24T08:13:20;12.00;69.10
62904;DHT22;49000;50.698;13.322;2023-04-24T08:15:46;12.20;67.90
62904;DHT22;49000;50.698;13.322;2023-04-24T08:18:11;12.40;60.80
62904;DHT22;49000;50.698;13.322;2023-04-24T08:20:39;12.50;56.40
62904;DHT22;49000;50.698;13.322;2023-04-24T08:23:04;12.60;45.70
62904;DHT22;49000;50.698;13.322;2023-04-24T08:25:30;12.70;42.80
62904;DHT22;49000;50.698;13.322;2023-04-24T08:27:55;12.60;45.70
62904;DHT22;49000;50.698;13.322;2023-04-24T08:30:21;12.60;36.00
62904;DHT22;49000;50.698;13.322;2023-04-24T08:32:47;12.60;33.20
62904;DHT22;49000;50.698;13.322;2023-04-24T08:35:13;12.60;32.70
62904;DHT22;49000;50.698;13.322;2023-04-24T08:37:38;12.70;31.40
62904;DHT22;49000;50.698;13.322;2023-04-24T08:40:09;12.80;27.80
62904;DHT22;49000;50.698;13.322;2023-04-24T08:42:37;12.80;25.10
62904;DHT22;49000;50.698;13.322;2023-04-24T08:45:02;12.90;23.00
62904;DHT22;49000;50.698;13.322;2023-04-24T08:47:29;13.00;24.70
62904;DHT22;49000;50.698;13.322;2023-04-24T08:49:56;13.10;25.50
62904;DHT22;49000;50.698;13.322;2023-04-24T08:52:21;13.00;20.50
62904;DHT22;49000;50.698;13.322;2023-04-24T08:54:47;13.00;22.90
62904;DHT22;49000;50.698;13.322;2023-04-24T08:57:14;12.80;19.40
62904;DHT22;49000;50.698;13.322;2023-04-24T08:59:40;12.80;19.70
62904;DHT22;49000;50.698;13.322;2023-04-24T09:02:06;12.90;21.20
62904;DHT22;49000;50.698;13.322;2023-04-24T09:04:35;12.90;19.20
62904;DHT22;49000;50.698;13.322;2023-04-24T09:07:01;12.90;18.80
62904;DHT22;49000;50.698;13.322;2023-04-24T09:09:29;13.00;19.80
62904;DHT22;49000;50.698;13.322;2023-04-24T09:11:56;13.00;21.00
62904;DHT22;49000;50.698;13.322;2023-04-24T09:14:22;13.20;19.60
62904;DHT22;49000;50.698;13.322;2023-04-24T09:16:49;13.30;19.50
62904;DHT22;49000;50.698;13.322;2023-04-24T09:19:15;13.30;16.70
62904;DHT22;49000;50.698;13.322;2023-04-24T09:21:40;13.40;16.90
62904;DHT22;49000;50.698;13.322;2023-04-24T09:24:15;13.40;15.80
62904;DHT22;49000;50.698;13.322;2023-04-24T09:26:43;13.50;15.60
62904;DHT22;49000;50.698;13.322;2023-04-24T09:29:15;13.50;15.80
62904;DHT22;49000;50.698;13.322;2023-04-24T09:31:41;13.70;13.40
62904;DHT22;49000;50.698;13.322;2023-04-24T09:34:07;13.90;10.90
62904;DHT22;49000;50.698;13.322;2023-04-24T09:36:37;13.90;9.20
62904;DHT22;49000;50.698;13.322;2023-04-24T09:39:04;14.10;6.80
62904;DHT22;49000;50.698;13.322;2023-04-24T09:41:32;14.10;8.80
62904;DHT22;49000;50.698;13.322;2023-04-24T09:44:10;14.10;7.90
62904;DHT22;49000;50.698;13.322;2023-04-24T09:46:36;14.10;5.40
62904;DHT22;49000;50.698;13.322;2023-04-24T09:49:29;13.80;5.70
62904;DHT22;49000;50.698;13.322;2023-04-24T09:52:08;13.80;10.80
62904;DHT22;49000;50.698;13.322;2023-04-24T09:54:35;14.00;9.20
62904;DHT22;49000;50.698;13.322;2023-04-24T09:57:04;14.00;9.40
62904;DHT22;49000;50.698;13.322;2023-04-24T09:59:30;14.00;9.20
62904;DHT22;49000;50.698;13.322;2023-04-24T10:01:56;13.80;6.80
62904;DHT22;49000;50.698;13.322;2023-04-24T10:04:26;13.70;8.00
62904;DHT22;49000;50.698;13.322;2023-04-24T10:06:54;13.50;7.50
62904;DHT22;49000;50.698;13.322;2023-04-24T10:09:22;13.40;7.90
62904;DHT22;49000;50.698;13.322;2023-04-24T10:11:50;13.30;10.50
62904;DHT22;49000;50.698;13.322;2023-04-24T10:14:18;13.20;10.40
62904;DHT22;49000;50.698;13.322;2023-04-24T10:16:44;13.20;12.20
62904;DHT22;49000;50.698;13.322;2023-04-24T10:19:12;13.30;12.00
62904;DHT22;49000;50.698;13.322;2023-04-24T10:21:40;13.70;10.80
62904;DHT22;49000;50.698;13.322;2023-04-24T10:24:08;14.00;10.90
62904;DHT22;49000;50.698;13.322;2023-04-24T10:26:34;14.30;8.60
62904;DHT22;49000;50.698;13.322;2023-04-24T10:29:01;14.40;5.50
62904;DHT22;49000;50.698;13.322;2023-04-24T10:31:27;14.40;7.40
62904;DHT22;49000;50.698;13.322;2023-04-24T10:33:56;14.20;4.10
62904;DHT22;49000;50.698;13.322;2023-04-24T10:36:23;14.20;6.30
62904;DHT22;49000;50.698;13.322;2023-04-24T10:38:53;14.20;5.60
62904;DHT22;49000;50.698;13.322;2023-04-24T10:41:20;14.20;7.60
62904;DHT22;49000;50.698;13.322;2023-04-24T10:43:48;14.20;7.00
62904;DHT22;49000;50.698;13.322;2023-04-24T10:46:30;14.10;8.90
62904;DHT22;49000;50.698;13.322;2023-04-24T10:48:55;14.00;3.50
62904;DHT22;49000;50.698;13.322;2023-04-24T10:51:23;14.00;5.00
62904;DHT22;49000;50.698;13.322;2023-04-24T10:53:52;13.80;6.90
62904;DHT22;49000;50.698;13.322;2023-04-24T10:56:17;13.70;9.30
62904;DHT22;49000;50.698;13.322;2023-04-24T10:58:50;13.70;10.70
62904;DHT22;49000;50.698;13.322;2023-04-24T11:01:30;13.90;9.00
62904;DHT22;49000;50.698;13.322;2023-04-24T11:04:01;13.80;6.00
62904;DHT22;49000;50.698;13.322;2023-04-24T11:06:36;13.50;7.80
62904;DHT22;49000;50.698;13.322;2023-04-24T11:11:31;13.30;5.00
62904;DHT22;49000;50.698;13.322;2023-04-24T11:19:04;14.90;1.60
62904;DHT22;49000;50.698;13.322;2023-04-24T11:21:47;15.80;1.00
62904;DHT22;49000;50.698;13.322;2023-04-24T11:24:49;15.80;1.00
62904;DHT22;49000;50.698;13.322;2023-04-24T11:27:19;15.40;1.00
62904;DHT22;49000;50.698;13.322;2023-04-24T11:35:06;15.40;1.00
62904;DHT22;49000;50.698;13.322;2023-04-24T11:37:41;15.50;1.00
62904;DHT22;49000;50.698;13.322;2023-04-24T11:40:11;15.20;1.00
62904;DHT22;49000;50.698;13.322;2023-04-24T11:42:44;14.90;1.00
62904;DHT22;49000;50.698;13.322;2023-04-24T11:45:15;14.80;1.00
62904;DHT22;49000;50.698;13.322;2023-04-24T11:47:42;14.60;1.00
62904;DHT22;49000;50.698;13.322;2023-04-24T11:50:13;14.40;1.00
62904;DHT22;49000;50.698;13.322;2023-04-24T11:52:40;14.50;1.00
62904;DHT22;49000;50.698;13.322;2023-04-24T11:55:07;14.10;1.00
62904;DHT22;49000;50.698;13.322;2023-04-24T11:57:33;14.00;1.00
62904;DHT22;49000;50.698;13.322;2023-04-24T12:00:02;14.20;1.00
62904;DHT22;49000;50.698;13.322;2023-04-24T12:02:28;14.50;1.00
62904;DHT22;49000;50.698;13.322;2023-04-24T12:04:54;14.60;1.00
62904;DHT22;49000;50.698;13.322;2023-04-24T12:07:22;14.60;1.00
62904;DHT22;49000;50.698;13.322;2023-04-24T12:09:56;14.50;1.00
62904;DHT22;49000;50.698;13.322;2023-04-24T12:12:24;14.30;1.00
62904;DHT22;49000;50.698;13.322;2023-04-24T12:14:55;14.20;1.00
62904;DHT22;49000;50.698;13.322;2023-04-24T12:17:29;14.10;1.00
62904;DHT22;49000;50.698;13.322;2023-04-24T12:20:00;14.50;1.00
62904;DHT22;49000;50.698;13.322;2023-04-24T12:22:26;14.70;1.00
62904;DHT22;49000;50.698;13.322;2023-04-24T12:24:59;14.70;1.00
62904;DHT22;49000;50.698;13.322;2023-04-24T12:27:26;14.60;1.00
62904;DHT22;49000;50.698;13.322;2023-04-24T12:29:56;15.20;1.00
62904;DHT22;49000;50.698;13.322;2023-04-24T12:32:21;15.50;1.00
62904;DHT22;49000;50.698;13.322;2023-04-24T12:34:49;15.70;1.00
62904;DHT22;49000;50.698;13.322;2023-04-24T12:37:15;15.90;1.00
62904;DHT22;49000;50.698;13.322;2023-04-24T12:42:30;15.30;1.00
62904;DHT22;49000;50.698;13.322;2023-04-24T12:45:01;15.20;1.00
62904;DHT22;49000;50.698;13.322;2023-04-24T12:47:30;14.90;1.00
62904;DHT22;49000;50.698;13.322;2023-04-24T12:49:56;15.00;1.00
62904;DHT22;49000;50.698;13.322;2023-04-24T12:52:22;15.60;1.00
62904;DHT22;49000;50.698;13.322;2023-04-24T12:54:50;16.20;1.00
62904;DHT22;49000;50.698;13.322;2023-04-24T12:57:17;16.20;1.00
62904;DHT22;49000;50.698;13.322;2023-04-24T12:59:43;15.60;1.00
62904;DHT22;49000;50.698;13.322;2023-04-24T13:02:09;15.40;1.00
62904;DHT22;49000;50.698;13.322;2023-04-24T13:04:35;15.40;1.00
62904;DHT22;49000;50.698;13.322;2023-04-24T13:07:01;15.30;1.00
62904;DHT22;49000;50.698;13.322;2023-04-24T13:09:26;15.00;1.00
62904;DHT22;49000;50.698;13.322;2023-04-24T13:11:51;14.70;1.00
62904;DHT22;49000;50.698;13.322;2023-04-24T13:14:17;14.90;1.00
62904;DHT22;49000;50.698;13.322;2023-04-24T13:16:42;15.00;1.00
62904;DHT22;49000;50.698;13.322;2023-04-24T13:19:08;16.00;1.00
62904;DHT22;49000;50.698;13.322;2023-04-24T13:21:33;16.40;1.00
62904;DHT22;49000;50.698;13.322;2023-04-24T13:23:59;15.60;1.00
62904;DHT22;49000;50.698;13.322;2023-04-24T13:26:25;15.40;1.00
62904;DHT22;49000;50.698;13.322;2023-04-24T13:28:50;15.60;1.00
62904;DHT22;49000;50.698;13.322;2023-04-24T13:31:16;16.60;1.00
62904;DHT22;49000;50.698;13.322;2023-04-24T13:33:42;16.20;1.00
62904;DHT22;49000;50.698;13.322;2023-04-24T13:36:07;15.90;1.00
62904;DHT22;49000;50.698;13.322;2023-04-24T13:38:34;15.70;1.00
62904;DHT22;49000;50.698;13.322;2023-04-24T13:41:00;15.50;1.00
62904;DHT22;49000;50.698;13.322;2023-04-24T13:43:26;15.00;1.00
62904;DHT22;49000;50.698;13.322;2023-04-24T13:45:51;14.90;1.00
62904;DHT22;49000;50.698;13.322;2023-04-24T13:48:16;14.70;1.00
62904;DHT22;49000;50.698;13.322;2023-04-24T13:50:43;14.80;1.00
62904;DHT22;49000;50.698;13.322;2023-04-24T13:53:09;14.60;1.00
62904;DHT22;49000;50.698;13.322;2023-04-24T13:55:35;14.80;1.00
62904;DHT22;49000;50.698;13.322;2023-04-24T13:58:01;15.00;1.00
62904;DHT22;49000;50.698;13.322;2023-04-24T14:00:27;14.90;1.00
62904;DHT22;49000;50.698;13.322;2023-04-24T14:02:52;14.90;1.00
62904;DHT22;49000;50.698;13.322;2023-04-24T14:05:18;15.80;1.00
62904;DHT22;49000;50.698;13.322;2023-04-24T14:07:43;16.50;1.00
62904;DHT22;49000;50.698;13.322;2023-04-24T14:10:09;16.80;1.00
62904;DHT22;49000;50.698;13.322;2023-04-24T14:12:35;16.70;1.00
62904;DHT22;49000;50.698;13.322;2023-04-24T14:15:01;16.30;1.00
62904;DHT22;49000;50.698;13.322;2023-04-24T14:17:27;15.80;1.00
62904;DHT22;49000;50.698;13.322;2023-04-24T14:19:52;15.30;1.00
62904;DHT22;49000;50.698;13.322;2023-04-24T14:22:21;15.10;1.00
62904;DHT22;49000;50.698;13.322;2023-04-24T14:24:46;15.00;1.00
62904;DHT22;49000;50.698;13.322;2023-04-24T14:27:12;15.50;1.00
62904;DHT22;49000;50.698;13.322;2023-04-24T14:29:37;16.50;1.00
62904;DHT22;49000;50.698;13.322;2023-04-24T14:32:03;16.50;1.00
62904;DHT22;49000;50.698;13.322;2023-04-24T14:34:28;16.80;1.00
62904;DHT22;49000;50.698;13.322;2023-04-24T14:36:54;16.60;1.00
62904;DHT22;49000;50.698;13.322;2023-04-24T14:39:19;16.40;1.00
62904;DHT22;49000;50.698;13.322;2023-04-24T14:41:45;16.90;1.00
62904;DHT22;49000;50.698;13.322;2023-04-24T14:44:11;17.20;1.00
62904;DHT22;49000;50.698;13.322;2023-04-24T14:46:36;17.40;1.00
62904;DHT22;49000;50.698;13.322;2023-04-24T14:49:02;17.60;1.00
62904;DHT22;49000;50.698;13.322;2023-04-24T14:51:28;18.50;1.00
62904;DHT22;49000;50.698;13.322;2023-04-24T14:53:53;19.00;1.00
62904;DHT22;49000;50.698;13.322;2023-04-24T14:56:19;19.00;1.00
62904;DHT22;49000;50.698;13.322;2023-04-24T14:58:44;19.00;1.00
62904;DHT22;49000;50.698;13.322;2023-04-24T15:01:10;18.50;1.00
62904;DHT22;49000;50.698;13.322;2023-04-24T15:03:36;17.80;1.00
62904;DHT22;49000;50.698;13.322;2023-04-24T15:06:01;16.90;1.00
62904;DHT22;49000;50.698;13.322;2023-04-24T15:08:27;15.90;1.00
62904;DHT22;49000;50.698;13.322;2023-04-24T15:10:52;16.00;1.00
62904;DHT22;49000;50.698;13.322;2023-04-24T15:13:18;16.30;1.00
62904;DHT22;49000;50.698;13.322;2023-04-24T15:15:46;15.90;1.00
62904;DHT22;49000;50.698;13.322;2023-04-24T15:18:12;15.80;1.00
62904;DHT22;49000;50.698;13.322;2023-04-24T15:20:38;15.70;1.00
62904;DHT22;49000;50.698;13.322;2023-04-24T15:23:08;15.60;1.00
62904;DHT22;49000;50.698;13.322;2023-04-24T15:25:34;15.60;1.00
62904;DHT22;49000;50.698;13.322;2023-04-24T15:28:00;15.70;1.00
62904;DHT22;49000;50.698;13.322;2023-04-24T15:30:26;15.80;1.00
62904;DHT22;49000;50.698;13.322;2023-04-24T15:32:51;16.00;1.00
62904;DHT22;49000;50.698;13.322;2023-04-24T15:35:17;16.10;1.00